Time;durP1;ratioP1;P1;durP2;ratioP2;P2;SDS_P1;SDS_P2;PMS_P1;PMS_P2;Temp;Humidity;BMP_temperature;BMP_pressure;BME280_temperature;BME280_humidity;BME280_pressure;Samples;Min_cycle;Max_cycle;Signal;HPM_P1;HPM_P2
2023/05/27 00:02:15;;;;;;;17.60;5.50;;;;;;;8.72;87.23;102213.98;107091;1261;60559;-66
2023/05/27 00:04:41;;;;;;;16.90;5.50;;;;;;;8.70;87.30;102217.55;107349;1259;60452;-66
2023/05/27 00:07:08;;;;;;;15.30;5.00;;;;;;;8.67;87.50;102215.48;107206;1259;73866;-66
2023/05/27 00:09:35;;;;;;;15.20;5.20;;;;;;;8.65;87.94;102216.95;107193;1259;69987;-65
2023/05/27 00:12:02;;;;;;;15.70;5.00;;;;;;;8.62;87.89;102215.92;107542;1259;70837;-67
2023/05/27 00:14:28;;;;;;;20.20;5.90;;;;;;;8.60;87.77;102212.19;107199;1260;61348;-65
2023/05/27 00:16:55;;;;;;;18.00;5.10;;;;;;;8.58;87.74;102211.49;107634;1259;59707;-65
2023/05/27 00:19:24;;;;;;;18.40;5.40;;;;;;;8.54;88.01;102212.66;107404;1262;73632;-67
2023/05/27 00:21:52;;;;;;;16.90;5.40;;;;;;;8.52;88.18;102215.47;107015;1260;70200;-65
2023/05/27 00:24:20;;;;;;;20.40;5.40;;;;;;;8.48;88.47;102217.03;107015;1262;71491;-67
2023/05/27 00:26:46;;;;;;;14.60;5.50;;;;;;;8.44;88.68;102214.35;107412;1259;60825;-66
2023/05/27 00:29:17;;;;;;;18.80;5.70;;;;;;;8.41;88.75;102213.18;107083;1259;60960;-66
2023/05/27 00:31:43;;;;;;;18.30;5.60;;;;;;;8.38;89.10;102211.45;107923;1260;74053;-65
2023/05/27 00:34:10;;;;;;;17.20;5.00;;;;;;;8.35;88.79;102208.50;107826;1259;72585;-65
2023/05/27 00:36:37;;;;;;;16.40;5.40;;;;;;;8.33;88.95;102208.53;107725;1259;72065;-66
2023/05/27 00:39:05;;;;;;;18.50;5.80;;;;;;;8.30;89.00;102210.84;107259;1264;61499;-66
2023/05/27 00:41:32;;;;;;;20.90;6.30;;;;;;;8.28;89.61;102210.70;107176;1262;60320;-66
2023/05/27 00:43:59;;;;;;;19.00;5.90;;;;;;;8.25;89.87;102209.13;107415;1260;72987;-67
2023/05/27 00:46:26;;;;;;;20.40;5.20;;;;;;;8.23;89.81;102210.19;107402;1260;70847;-64
2023/05/27 00:48:52;;;;;;;18.60;5.50;;;;;;;8.23;89.62;102209.70;107817;1260;73066;-65
2023/05/27 00:51:20;;;;;;;19.60;5.00;;;;;;;8.21;89.93;102206.16;107406;1259;60581;-65
2023/05/27 00:53:47;;;;;;;17.00;6.00;;;;;;;8.18;89.99;102207.78;107737;1259;60492;-66
2023/05/27 00:56:15;;;;;;;20.00;5.40;;;;;;;8.15;90.27;102204.33;107641;1259;73908;-63
2023/05/27 00:58:43;;;;;;;17.80;5.60;;;;;;;8.12;90.48;102207.66;107270;1260;69972;-66
2023/05/27 01:01:09;;;;;;;16.40;5.10;;;;;;;8.10;90.40;102205.89;106850;1260;71505;-66
2023/05/27 01:03:38;;;;;;;17.30;5.50;;;;;;;8.09;90.39;102204.75;106849;1259;60493;-65
2023/05/27 01:06:24;;;;;;;18.90;5.50;;;;;;;8.07;90.51;102207.04;107559;1259;60085;-65
2023/05/27 01:09:06;;;;;;;19.70;5.30;;;;;;;8.05;90.77;102205.80;107668;1259;73959;-66
2023/05/27 01:11:40;;;;;;;17.60;5.80;;;;;;;8.03;90.68;102204.40;107437;1260;70343;-65
2023/05/27 01:14:13;;;;;;;17.10;5.50;;;;;;;8.00;90.88;102203.94;107712;1259;71997;-65
2023/05/27 01:16:45;;;;;;;18.10;5.90;;;;;;;7.97;91.04;102214.02;106883;1259;61140;-65
2023/05/27 01:19:16;;;;;;;17.70;5.70;;;;;;;7.94;91.07;102212.10;106893;1259;60348;-64
2023/05/27 01:21:47;;;;;;;17.10;5.20;;;;;;;7.93;91.10;102207.43;106951;1260;74024;-66
2023/05/27 01:24:14;;;;;;;19.50;5.90;;;;;;;7.90;91.37;102208.56;107381;1262;72376;-65
2023/05/27 01:26:42;;;;;;;21.00;6.10;;;;;;;7.88;91.31;102211.33;107461;1257;72785;-65
2023/05/27 01:29:08;;;;;;;20.20;6.00;;;;;;;7.86;91.36;102208.16;107724;1261;60744;-63
2023/05/27 01:31:52;;;;;;;15.70;6.00;;;;;;;7.84;91.70;102206.23;107309;1256;59604;-63
2023/05/27 01:34:27;;;;;;;23.00;6.50;;;;;;;7.82;91.73;102204.31;107547;1258;72682;-64
2023/05/27 01:37:00;;;;;;;18.90;5.80;;;;;;;7.79;92.19;102194.27;107515;1256;71085;-65
2023/05/27 01:39:27;;;;;;;26.20;6.10;;;;;;;7.75;92.23;102195.42;107341;1260;73189;-65
2023/05/27 01:41:55;;;;;;;21.50;6.60;;;;;;;7.73;92.39;102196.46;107310;1260;61203;-63
2023/05/27 01:44:22;;;;;;;18.10;5.90;;;;;;;7.70;92.52;102192.83;108846;1262;60188;-64
2023/05/27 01:46:49;;;;;;;21.50;6.10;;;;;;;7.68;92.57;102188.80;107814;1264;73705;-64
2023/05/27 01:49:15;;;;;;;16.90;5.40;;;;;;;7.65;92.47;102191.48;107485;1261;71211;-67
2023/05/27 01:51:42;;;;;;;24.50;6.50;;;;;;;7.62;92.81;102191.36;106309;1262;72823;-65
2023/05/27 01:54:08;;;;;;;19.70;6.40;;;;;;;7.59;92.82;102187.90;107159;1261;60546;-64
2023/05/27 01:56:36;;;;;;;19.20;6.30;;;;;;;7.56;92.80;102185.83;106276;1262;60612;-64
2023/05/27 01:59:03;;;;;;;21.10;6.30;;;;;;;7.55;93.17;102187.70;108495;1257;72368;-66
2023/05/27 02:01:33;;;;;;;25.70;6.20;;;;;;;7.53;93.27;102186.41;106887;1259;69931;-66
2023/05/27 02:04:00;;;;;;;19.30;6.10;;;;;;;7.51;93.51;102185.36;106344;1257;71235;-64
2023/05/27 02:06:27;;;;;;;22.60;6.40;;;;;;;7.49;93.40;102184.48;106353;1259;60394;-65
2023/05/27 02:08:53;;;;;;;23.30;6.60;;;;;;;7.47;93.40;102180.38;108145;1258;60338;-65
2023/05/27 02:11:20;;;;;;;19.90;6.60;;;;;;;7.44;93.51;102178.64;106326;1257;60563;-69
2023/05/27 02:13:46;;;;;;;18.80;5.90;;;;;;;7.40;93.62;102178.64;107347;1262;69930;-66
2023/05/27 02:16:14;;;;;;;19.70;6.80;;;;;;;7.38;93.87;102180.74;106485;1260;72810;-65
2023/05/27 02:18:41;;;;;;;23.80;7.00;;;;;;;7.37;94.03;102182.41;106306;1257;60386;-67
2023/05/27 02:21:08;;;;;;;20.40;6.80;;;;;;;7.34;94.03;102173.92;107557;1257;60332;-64
2023/05/27 02:23:36;;;;;;;22.30;6.50;;;;;;;7.32;94.27;102172.02;106723;1261;72757;-66
2023/05/27 02:26:02;;;;;;;20.30;6.80;;;;;;;7.30;94.37;102180.08;106822;1261;70787;-65
2023/05/27 02:28:29;;;;;;;15.40;6.10;;;;;;;7.28;94.29;102181.25;106958;1257;72629;-64
2023/05/27 02:30:58;;;;;;;20.70;6.70;;;;;;;7.26;94.24;102176.00;106536;1257;61197;-66
2023/05/27 02:33:24;;;;;;;18.90;6.30;;;;;;;7.23;94.17;102177.75;107344;1258;61016;-65
2023/05/27 02:35:51;;;;;;;18.50;6.30;;;;;;;7.22;94.48;102178.20;107342;1257;73608;-65
2023/05/27 02:38:18;;;;;;;20.00;6.10;;;;;;;7.20;94.29;102177.17;107714;1257;71635;-64
2023/05/27 02:40:45;;;;;;;23.10;6.70;;;;;;;7.17;94.31;102175.46;106406;1258;70931;-65
2023/05/27 02:43:11;;;;;;;19.40;6.00;;;;;;;7.15;94.47;102179.30;106596;1261;61084;-67
2023/05/27 02:45:38;;;;;;;17.70;6.60;;;;;;;7.13;94.59;102178.39;106509;1258;60425;-64
2023/05/27 02:48:05;;;;;;;17.80;6.00;;;;;;;7.11;94.34;102175.89;107218;1257;72715;-66
2023/05/27 02:50:32;;;;;;;22.20;6.70;;;;;;;7.08;94.18;102176.45;106385;1260;70918;-65
2023/05/27 02:52:58;;;;;;;22.00;6.90;;;;;;;7.04;94.17;102177.80;107517;1258;71541;-63
2023/05/27 02:55:25;;;;;;;14.60;6.30;;;;;;;7.01;94.50;102178.58;107215;1259;60466;-65
2023/05/27 02:57:52;;;;;;;22.70;6.50;;;;;;;6.99;94.36;102176.66;106878;1261;59466;-65
2023/05/27 03:00:18;;;;;;;19.00;6.00;;;;;;;6.97;94.39;102181.57;106808;1257;72688;-66
2023/05/27 03:02:45;;;;;;;15.90;6.60;;;;;;;6.94;94.41;102186.98;106607;1258;71260;-64
2023/05/27 03:05:12;;;;;;;17.20;6.10;;;;;;;6.91;94.34;102188.10;107374;1257;73255;-65
2023/05/27 03:07:41;;;;;;;19.40;6.50;;;;;;;6.87;94.47;102192.61;106700;1258;60554;-65
2023/05/27 03:10:08;;;;;;;17.90;6.40;;;;;;;6.83;94.63;102198.01;107115;1257;60368;-63
2023/05/27 03:12:34;;;;;;;19.10;6.70;;;;;;;6.81;94.92;102199.24;106401;1261;75017;-64
2023/05/27 03:15:01;;;;;;;22.80;6.80;;;;;;;6.78;94.86;102204.21;107308;1258;71302;-65
2023/05/27 03:17:27;;;;;;;21.90;6.80;;;;;;;6.77;94.98;102202.71;106351;1261;71765;-63
2023/05/27 03:19:54;;;;;;;21.00;6.60;;;;;;;6.74;95.12;102197.63;106529;1261;60460;-62
2023/05/27 03:22:21;;;;;;;20.90;7.20;;;;;;;6.74;95.10;102198.16;106802;1256;60442;-65
2023/05/27 03:24:47;;;;;;;21.90;7.00;;;;;;;6.73;95.34;102200.73;107658;1257;74022;-65
2023/05/27 03:27:14;;;;;;;21.10;7.50;;;;;;;6.71;95.51;102192.40;107135;1258;71084;-64
2023/05/27 03:29:41;;;;;;;22.20;7.80;;;;;;;6.70;95.38;102193.86;107173;1257;70562;-65
2023/05/27 03:32:08;;;;;;;23.40;7.10;;;;;;;6.70;95.26;102190.39;106894;1257;61905;-64
2023/05/27 03:34:35;;;;;;;19.20;7.40;;;;;;;6.70;95.73;102190.36;106502;1259;60595;-66
2023/05/27 03:37:01;;;;;;;17.30;6.70;;;;;;;6.71;96.02;102194.82;106719;1257;73027;-65
2023/05/27 03:39:28;;;;;;;22.40;7.30;;;;;;;6.72;95.87;102184.37;106617;1257;60326;-65
2023/05/27 03:41:54;;;;;;;18.40;7.20;;;;;;;6.75;96.13;102180.33;107368;1257;60369;-67
2023/05/27 03:44:21;;;;;;;15.30;6.50;;;;;;;6.77;95.94;102178.27;108051;1257;59990;-67
2023/05/27 03:46:47;;;;;;;19.10;7.50;;;;;;;6.79;95.99;102179.02;107982;1257;61485;-65
2023/05/27 03:49:14;;;;;;;21.10;6.90;;;;;;;6.81;95.98;102175.33;108091;1256;59249;-64
2023/05/27 03:51:40;;;;;;;20.80;7.00;;;;;;;6.84;96.11;102180.71;107901;1257;58726;-65
2023/05/27 03:54:07;;;;;;;20.90;6.60;;;;;;;6.88;95.90;102180.77;108095;1257;58873;-66
2023/05/27 03:56:33;;;;;;;23.40;6.60;;;;;;;6.92;96.04;102182.05;108066;1257;58740;-63
2023/05/27 03:59:00;;;;;;;19.40;7.00;;;;;;;6.97;96.06;102178.69;107957;1262;58570;-65
2023/05/27 04:01:27;;;;;;;18.60;6.80;;;;;;;7.02;96.03;102177.44;107926;1258;74553;-65
2023/05/27 04:03:54;;;;;;;20.50;7.40;;;;;;;7.09;95.85;102177.44;108089;1258;71717;-65
2023/05/27 04:06:21;;;;;;;18.10;6.90;;;;;;;7.15;95.81;102177.50;107957;1258;73025;-65
2023/05/27 04:08:47;;;;;;;20.70;6.80;;;;;;;7.22;95.62;102176.31;107855;1257;61283;-65
2023/05/27 04:11:14;;;;;;;20.50;6.80;;;;;;;7.26;95.63;102178.77;108080;1257;59852;-65
2023/05/27 04:13:41;;;;;;;17.80;7.00;;;;;;;7.30;95.55;102181.14;107950;1257;73854;-66
2023/05/27 04:16:07;;;;;;;22.70;6.30;;;;;;;7.36;95.50;102176.08;108020;1258;71246;-65
2023/05/27 04:18:35;;;;;;;20.50;6.30;;;;;;;7.43;95.74;102170.17;108017;1257;71431;-65
2023/05/27 04:21:02;;;;;;;18.30;6.80;;;;;;;7.49;95.69;102166.86;108033;1257;59157;-65
2023/05/27 04:23:28;;;;;;;17.50;6.40;;;;;;;7.55;95.54;102164.39;108094;1256;59463;-65
2023/05/27 04:25:55;;;;;;;17.90;6.20;;;;;;;7.62;95.40;102162.17;108035;1258;72736;-65
2023/05/27 04:28:22;;;;;;;17.90;6.20;;;;;;;7.68;95.40;102154.96;108089;1257;71216;-65
2023/05/27 04:30:50;;;;;;;20.00;6.90;;;;;;;7.73;95.10;102151.73;108038;1257;72751;-63
2023/05/27 04:33:17;;;;;;;18.80;6.70;;;;;;;7.81;95.16;102153.59;108090;1257;61257;-65
2023/05/27 04:35:43;;;;;;;16.60;6.60;;;;;;;7.90;95.01;102153.63;108094;1258;60134;-64
2023/05/27 04:38:15;;;;;;;16.10;6.30;;;;;;;7.99;95.07;102153.08;108535;1257;73918;-63
2023/05/27 04:40:46;;;;;;;22.80;6.70;;;;;;;8.05;94.82;102152.45;108820;1257;71229;-64
2023/05/27 04:43:14;;;;;;;20.40;6.50;;;;;;;8.14;95.16;102152.54;108581;1257;72809;-67
2023/05/27 04:45:43;;;;;;;18.20;6.70;;;;;;;8.26;95.27;102150.73;108285;1257;59704;-66
2023/05/27 04:48:10;;;;;;;19.90;6.10;;;;;;;8.37;94.94;102150.54;108657;1256;60673;-63
2023/05/27 04:50:37;;;;;;;16.60;7.20;;;;;;;8.45;94.42;102153.59;106728;1257;73935;-66
2023/05/27 04:53:04;;;;;;;20.50;6.50;;;;;;;8.53;94.69;102159.63;106993;1257;70176;-64
2023/05/27 04:55:33;;;;;;;16.70;6.30;;;;;;;8.63;94.34;102156.45;106792;1257;71617;-64
2023/05/27 04:58:03;;;;;;;16.40;6.70;;;;;;;8.72;94.48;102160.98;107090;1257;60366;-65
2023/05/27 05:00:38;;;;;;;20.10;6.20;;;;;;;8.79;93.94;102164.80;106834;1257;60502;-64
2023/05/27 05:03:07;;;;;;;19.40;7.00;;;;;;;8.88;94.15;102168.10;106481;1257;72619;-63
2023/05/27 05:05:34;;;;;;;17.60;6.70;;;;;;;8.95;93.57;102172.98;106302;1261;71391;-65
2023/05/27 05:08:01;;;;;;;20.20;7.00;;;;;;;9.00;93.33;102178.22;107180;1257;72739;-64
2023/05/27 05:10:29;;;;;;;19.50;6.80;;;;;;;9.04;93.38;102182.34;106695;1257;61222;-63
2023/05/27 05:12:56;;;;;;;18.80;7.50;;;;;;;9.09;93.24;102183.81;107516;1257;60441;-65
2023/05/27 05:15:23;;;;;;;16.50;6.60;;;;;;;9.17;93.15;102185.42;107158;1262;74484;-65
2023/05/27 05:17:50;;;;;;;17.80;6.10;;;;;;;9.27;92.97;102188.29;106544;1261;69894;-64
2023/05/27 05:20:17;;;;;;;16.60;6.00;;;;;;;9.36;92.91;102186.08;106572;1257;72554;-66
2023/05/27 05:22:43;;;;;;;15.40;5.50;;;;;;;9.45;92.37;102182.39;106438;1257;60345;-64
2023/05/27 05:25:10;;;;;;;16.00;5.10;;;;;;;9.53;92.15;102182.18;106404;1257;60806;-65
2023/05/27 05:27:39;;;;;;;17.70;5.70;;;;;;;9.62;91.90;102181.05;107143;1260;73621;-65
2023/05/27 05:30:06;;;;;;;15.90;5.40;;;;;;;9.74;91.95;102187.48;106343;1257;71260;-65
2023/05/27 05:32:33;;;;;;;13.20;5.00;;;;;;;9.87;91.48;102189.73;107198;1257;71516;-64
2023/05/27 05:34:59;;;;;;;16.30;5.80;;;;;;;9.99;91.26;102186.02;107098;1257;60377;-62
2023/05/27 05:37:26;;;;;;;15.10;5.30;;;;;;;10.10;90.64;102186.13;106976;1256;60550;-62
2023/05/27 05:39:55;;;;;;;15.40;5.90;;;;;;;10.21;90.46;102186.19;106418;1257;74065;-62
2023/05/27 05:42:22;;;;;;;14.40;5.60;;;;;;;10.33;90.10;102186.04;106467;1260;71197;-65
2023/05/27 05:44:49;;;;;;;17.00;5.20;;;;;;;10.47;89.79;102183.20;107457;1258;71477;-64
2023/05/27 05:47:15;;;;;;;17.50;5.30;;;;;;;10.55;89.02;102185.52;108028;1257;63183;-65
2023/05/27 05:49:41;;;;;;;17.00;5.40;;;;;;;10.69;89.29;102180.21;108610;1257;58291;-64
2023/05/27 05:52:08;;;;;;;16.50;5.50;;;;;;;10.84;88.77;102174.95;108582;1257;57604;-63
2023/05/27 05:54:35;;;;;;;12.10;5.20;;;;;;;10.98;88.03;102176.30;107771;1257;69948;-63
2023/05/27 05:57:02;;;;;;;15.70;5.50;;;;;;;11.09;87.33;102176.17;108114;1257;72736;-64
2023/05/27 05:59:28;;;;;;;16.80;5.70;;;;;;;11.18;87.02;102173.23;107827;1257;62049;-62
2023/05/27 06:01:55;;;;;;;16.50;5.30;;;;;;;11.31;86.95;102174.66;107555;1257;60890;-63
2023/05/27 06:04:22;;;;;;;13.60;5.10;;;;;;;11.42;86.35;102175.94;108503;1256;73963;-65
2023/05/27 06:06:48;;;;;;;16.30;5.70;;;;;;;11.55;86.34;102175.79;108681;1262;70875;-63
2023/05/27 06:09:15;;;;;;;17.90;7.00;;;;;;;11.66;85.79;102178.48;107009;1256;71529;-61
2023/05/27 06:11:41;;;;;;;14.60;5.20;;;;;;;11.75;85.68;102181.46;108170;1257;60530;-63
2023/05/27 06:14:08;;;;;;;14.70;5.30;;;;;;;11.84;84.90;102181.35;107721;1257;60155;-62
2023/05/27 06:16:35;;;;;;;12.20;5.10;;;;;;;11.91;84.49;102177.03;107276;1257;60443;-63
2023/05/27 06:19:02;;;;;;;15.10;4.80;;;;;;;11.97;84.36;102175.88;107339;1257;69768;-61
2023/05/27 06:21:32;;;;;;;16.00;5.10;;;;;;;12.08;84.49;102176.63;107977;1257;72447;-62
2023/05/27 06:23:59;;;;;;;12.30;4.90;;;;;;;12.16;83.58;102173.14;107894;1257;62150;-63
2023/05/27 06:26:27;;;;;;;17.00;5.80;;;;;;;12.16;83.47;102168.71;106439;1257;60777;-63
2023/05/27 06:28:54;;;;;;;14.60;5.40;;;;;;;12.22;83.66;102172.34;107467;1257;75125;-62
2023/05/27 06:31:20;;;;;;;13.00;5.70;;;;;;;12.28;83.23;102170.40;106296;1257;240119;-63
2023/05/27 06:33:47;;;;;;;14.30;5.10;;;;;;;12.33;83.10;102168.54;107310;1256;71731;-65
2023/05/27 06:36:13;;;;;;;14.60;6.10;;;;;;;12.38;82.91;102173.17;106772;1257;60585;-62
2023/05/27 06:38:40;;;;;;;14.90;5.50;;;;;;;12.47;83.12;102175.09;107151;1257;60474;-65
2023/05/27 06:41:07;;;;;;;16.10;5.20;;;;;;;12.59;83.22;102171.25;106514;1257;60448;-63
2023/05/27 06:43:34;;;;;;;12.10;4.50;;;;;;;12.71;82.53;102179.14;107382;1257;71686;-64
2023/05/27 06:46:01;;;;;;;13.00;4.50;;;;;;;12.74;82.03;102177.61;108088;1257;60322;-64
2023/05/27 06:48:31;;;;;;;15.20;5.10;;;;;;;12.76;82.06;102174.34;108851;1257;60583;-64
2023/05/27 06:50:57;;;;;;;15.40;5.40;;;;;;;12.83;82.20;102171.89;108803;1257;59132;-62
2023/05/27 06:53:24;;;;;;;16.40;5.10;;;;;;;12.99;82.38;102169.23;106547;1256;71996;-62
2023/05/27 06:55:50;;;;;;;13.10;4.90;;;;;;;13.16;81.87;102168.59;106606;1258;71119;-63
2023/05/27 06:58:17;;;;;;;15.50;5.50;;;;;;;13.30;81.16;102168.47;107455;1263;58059;-65
2023/05/27 07:00:44;;;;;;;16.10;4.70;;;;;;;13.46;80.81;102167.86;106712;1256;62616;-64
2023/05/27 07:03:10;;;;;;;15.50;5.40;;;;;;;13.62;79.36;102166.01;106482;1257;60442;-60
2023/05/27 07:05:37;;;;;;;18.40;5.10;;;;;;;13.72;78.51;102163.55;107395;1256;60345;-61
2023/05/27 07:08:03;;;;;;;14.60;5.00;;;;;;;13.81;77.63;102168.80;107617;1257;60287;-64
2023/05/27 07:10:30;;;;;;;10.90;4.30;;;;;;;13.91;77.36;102168.88;107237;1257;60590;-63
2023/05/27 07:12:56;;;;;;;16.00;4.80;;;;;;;13.98;76.57;102164.92;106538;1257;61976;-65
2023/05/27 07:15:25;;;;;;;9.50;4.10;;;;;;;14.11;77.16;102169.08;107146;1257;60382;-64
2023/05/27 07:17:51;;;;;;;11.10;4.40;;;;;;;14.22;75.80;102166.36;106480;1261;73230;-63
2023/05/27 07:20:18;;;;;;;11.00;4.20;;;;;;;14.30;75.38;102162.28;106620;1256;60437;-66
2023/05/27 07:22:45;;;;;;;13.80;4.70;;;;;;;14.38;74.87;102162.40;106515;1256;72723;-63
2023/05/27 07:25:11;;;;;;;11.80;4.20;;;;;;;14.51;75.08;102154.89;107095;1256;60465;-64
2023/05/27 07:27:38;;;;;;;13.60;4.80;;;;;;;14.67;73.96;102150.13;107385;1260;60588;-63
2023/05/27 07:30:05;;;;;;;12.00;4.80;;;;;;;14.79;73.69;102156.52;106727;1256;60783;-64
2023/05/27 07:32:32;;;;;;;14.00;4.30;;;;;;;14.91;73.24;102149.91;106773;1260;69075;-65
2023/05/27 07:34:59;;;;;;;12.60;4.20;;;;;;;14.98;71.87;102143.90;107622;1257;75059;-63
2023/05/27 07:37:28;;;;;;;13.30;4.20;;;;;;;15.04;71.82;102144.56;107302;1256;59120;-65
2023/05/27 07:39:54;;;;;;;12.60;4.00;;;;;;;15.12;71.13;102141.88;107820;1257;60477;-63
2023/05/27 07:42:21;;;;;;;13.50;4.30;;;;;;;15.26;71.20;102143.43;108836;1257;59008;-63
2023/05/27 07:44:47;;;;;;;11.20;4.50;;;;;;;15.41;69.78;102143.31;107344;1256;60612;-65
2023/05/27 07:47:14;;;;;;;12.20;4.00;;;;;;;15.51;68.35;102135.20;107783;1256;60457;-66
2023/05/27 07:49:40;;;;;;;11.70;3.90;;;;;;;15.56;66.59;102135.80;107658;1258;60459;-65
2023/05/27 07:52:08;;;;;;;13.50;3.80;;;;;;;15.62;66.97;102138.84;107484;1257;61149;-66
2023/05/27 07:54:35;;;;;;;10.90;3.70;;;;;;;15.72;66.52;102138.22;107361;1256;59375;-66
2023/05/27 07:57:16;;;;;;;12.40;3.70;;;;;;;15.83;65.85;102134.14;106739;1257;71112;-65
2023/05/27 07:59:43;;;;;;;12.80;4.00;;;;;;;15.96;65.33;102133.73;106832;1257;73510;-65
2023/05/27 08:02:10;;;;;;;10.00;4.00;;;;;;;16.06;63.99;102130.51;107918;1258;60763;-64
2023/05/27 08:04:36;;;;;;;13.00;4.00;;;;;;;16.11;63.80;102125.06;107393;1257;60090;-65
2023/05/27 08:07:03;;;;;;;14.20;4.00;;;;;;;16.14;63.33;102122.80;106552;1259;73417;-65
2023/05/27 08:09:32;;;;;;;10.90;3.70;;;;;;;16.16;62.91;102120.01;106976;1256;70621;-65
2023/05/27 08:11:59;;;;;;;12.10;3.40;;;;;;;16.24;63.28;102116.36;107581;1257;71019;-66
2023/05/27 08:14:27;;;;;;;9.30;2.90;;;;;;;16.25;61.86;102112.34;106673;1259;61933;-66
2023/05/27 08:16:54;;;;;;;10.80;3.50;;;;;;;16.23;61.89;102105.27;107157;1257;60425;-66
2023/05/27 08:19:21;;;;;;;10.70;3.60;;;;;;;16.33;62.42;102101.15;106985;1256;72452;-64
2023/05/27 08:21:47;;;;;;;10.70;3.50;;;;;;;16.49;61.66;102101.27;107029;1256;60490;-68
2023/05/27 08:24:14;;;;;;;9.90;2.90;;;;;;;16.59;60.31;102098.51;107715;1259;60455;-65
2023/05/27 08:26:41;;;;;;;8.50;2.90;;;;;;;16.68;60.27;102098.29;106652;1257;60950;-68
2023/05/27 08:29:07;;;;;;;9.90;3.00;;;;;;;16.81;59.96;102093.57;107335;1256;59021;-65
2023/05/27 08:31:34;;;;;;;7.40;3.30;;;;;;;16.93;59.14;102087.09;106693;1256;74520;-66
2023/05/27 08:34:00;;;;;;;14.50;3.50;;;;;;;17.01;57.88;102084.00;106761;1257;69961;-66
2023/05/27 08:36:27;;;;;;;10.10;3.40;;;;;;;17.09;58.12;102084.23;106569;1257;60452;-66
2023/05/27 08:38:53;;;;;;;10.10;3.10;;;;;;;17.24;58.06;102080.40;106629;1257;60406;-65
2023/05/27 08:41:21;;;;;;;10.20;3.10;;;;;;;17.29;57.29;102079.28;107534;1256;60913;-66
2023/05/27 08:43:49;;;;;;;11.50;2.90;;;;;;;17.39;57.03;102076.59;107516;1257;72746;-69
2023/05/27 08:46:16;;;;;;;11.10;3.20;;;;;;;17.54;56.56;102074.25;106652;1258;71371;-65
2023/05/27 08:48:43;;;;;;;12.00;3.90;;;;;;;17.63;56.08;102070.26;107210;1256;71119;-66
2023/05/27 08:51:09;;;;;;;10.20;3.40;;;;;;;17.73;56.28;102075.57;106536;1257;60442;-66
2023/05/27 08:53:37;;;;;;;9.80;3.20;;;;;;;17.88;57.03;102070.41;106575;1257;60857;-65
2023/05/27 08:56:06;;;;;;;8.30;3.20;;;;;;;17.96;54.34;102068.59;106847;1260;73929;-66
2023/05/27 08:58:33;;;;;;;11.40;3.70;;;;;;;18.06;54.29;102069.31;106356;1256;71286;-65
2023/05/27 09:01:01;;;;;;;8.70;3.40;;;;;;;18.19;55.00;102069.45;106367;1257;73347;-69
2023/05/27 09:03:28;;;;;;;8.90;3.50;;;;;;;18.31;54.05;102064.54;107548;1256;60506;-65
2023/05/27 09:05:55;;;;;;;12.00;3.60;;;;;;;18.33;53.68;102071.36;107506;1256;60977;-66
2023/05/27 09:08:22;;;;;;;9.10;3.70;;;;;;;18.22;53.15;102061.88;106427;1256;72683;-65
2023/05/27 09:10:57;;;;;;;10.80;3.90;;;;;;;18.12;52.66;102060.66;107157;1256;70987;-65
2023/05/27 09:13:31;;;;;;;11.40;3.90;;;;;;;18.09;52.72;102059.98;106936;1257;72616;-64
2023/05/27 09:15:59;;;;;;;7.80;3.30;;;;;;;18.16;53.69;102057.65;107574;1257;59149;-64
2023/05/27 09:18:35;;;;;;;9.50;3.40;;;;;;;18.16;53.25;102052.11;108282;1256;59107;-66
2023/05/27 09:21:02;;;;;;;9.10;3.00;;;;;;;18.24;53.17;102052.63;108446;1256;73783;-65
2023/05/27 09:23:28;;;;;;;8.40;3.50;;;;;;;18.29;52.57;102055.62;108224;1256;71273;-65
2023/05/27 09:25:55;;;;;;;13.10;3.70;;;;;;;18.44;52.36;102055.04;108781;1257;58442;-66
2023/05/27 09:28:26;;;;;;;12.20;3.50;;;;;;;18.65;52.03;102046.28;108480;1256;58631;-66
2023/05/27 09:31:04;;;;;;;8.80;3.30;;;;;;;18.83;51.77;102045.98;108611;1257;60012;-65
2023/05/27 09:33:34;;;;;;;9.40;3.20;;;;;;;18.98;49.75;102050.79;108532;1256;73641;-67
2023/05/27 09:36:03;;;;;;;9.80;3.50;;;;;;;19.07;50.09;102051.92;108559;1257;69997;-66
2023/05/27 09:38:34;;;;;;;10.30;3.40;;;;;;;19.18;49.59;102042.13;108795;1256;71526;-65
2023/05/27 09:41:02;;;;;;;9.70;3.40;;;;;;;19.31;49.75;102043.40;108418;1256;60914;-65
2023/05/27 09:43:29;;;;;;;8.60;3.10;;;;;;;19.49;50.00;102040.48;107788;1256;60531;-66
2023/05/27 09:46:01;;;;;;;8.80;2.90;;;;;;;19.66;48.99;102035.58;107943;1259;73928;-65
2023/05/27 09:48:31;;;;;;;11.10;3.40;;;;;;;19.78;49.03;102036.92;107642;1256;69724;-65
2023/05/27 09:50:59;;;;;;;10.60;3.50;;;;;;;19.85;49.10;102040.13;107897;1257;73232;-65
2023/05/27 09:53:27;;;;;;;12.20;3.60;;;;;;;19.85;48.22;102031.84;108339;1257;59308;-64
2023/05/27 09:55:55;;;;;;;8.90;3.10;;;;;;;19.77;48.54;102027.52;108768;1256;59720;-65
2023/05/27 09:58:23;;;;;;;10.00;3.80;;;;;;;19.82;48.49;102026.41;108522;1257;73216;-65
2023/05/27 10:00:50;;;;;;;10.60;3.40;;;;;;;19.93;47.96;102025.73;108099;1256;69995;-64
2023/05/27 10:03:21;;;;;;;9.20;3.00;;;;;;;19.92;47.70;102020.38;107247;1257;71249;-66
2023/05/27 10:05:50;;;;;;;7.70;3.20;;;;;;;19.94;48.58;102021.91;107602;1257;60601;-65
2023/05/27 10:08:18;;;;;;;10.10;3.30;;;;;;;20.05;48.16;102023.67;107604;1257;60442;-67
2023/05/27 10:10:53;;;;;;;7.50;2.70;;;;;;;20.24;48.35;102019.38;107879;1257;73896;-64
2023/05/27 10:13:21;;;;;;;11.10;3.90;;;;;;;20.34;48.01;102017.19;107448;1256;71294;-66
2023/05/27 10:15:51;;;;;;;9.10;2.90;;;;;;;20.49;48.17;102011.70;107777;1257;72772;-66
2023/05/27 10:18:29;;;;;;;7.90;3.20;;;;;;;20.63;46.91;102007.94;108443;1256;59681;-67
2023/05/27 10:20:58;;;;;;;9.20;3.20;;;;;;;20.67;46.31;102011.00;108005;1257;60350;-65
2023/05/27 10:23:25;;;;;;;10.40;2.90;;;;;;;20.70;45.83;102004.69;107211;1257;72261;-67
2023/05/27 10:25:56;;;;;;;7.50;2.60;;;;;;;20.83;45.80;102002.37;106504;1256;71576;-68
2023/05/27 10:28:26;;;;;;;8.30;2.70;;;;;;;21.06;44.41;101993.59;106941;1257;71557;-65
2023/05/27 10:31:02;;;;;;;8.90;2.60;;;;;;;21.30;43.80;101993.61;106709;1256;60780;-66
2023/05/27 10:33:33;;;;;;;6.50;2.30;;;;;;;21.38;42.59;101989.67;106245;1257;59996;-64
2023/05/27 10:36:08;;;;;;;8.30;2.60;;;;;;;21.37;41.63;101989.85;107685;1258;74585;-66
2023/05/27 10:38:35;;;;;;;11.60;5.40;;;;;;;21.42;41.66;101984.98;107261;1256;69916;-66
2023/05/27 10:41:04;;;;;;;7.90;2.80;;;;;;;21.43;42.06;101985.52;106305;1260;72358;-66
2023/05/27 10:43:32;;;;;;;8.50;3.00;;;;;;;21.39;42.09;101985.35;106738;1256;60705;-66
2023/05/27 10:46:11;;;;;;;8.90;2.80;;;;;;;21.39;41.63;101980.42;106648;1259;61202;-66
2023/05/27 10:48:39;;;;;;;8.80;2.60;;;;;;;21.38;41.86;101976.23;106530;1256;73929;-65
